sensor_id;sensor_type;location;lat;lon;timestamp;pressure;altitude;pressure_sealevel;temperature;humidity
44313;BME280;38833;51.142;-0.974;2024-03-02T00:01:00;97459.16;;;26.80;25.95
44313;BME280;38833;51.142;-0.974;2024-03-02T00:03:33;97442.74;;;27.03;25.93
44313;BME280;38833;51.142;-0.974;2024-03-02T00:06:07;97432.06;;;27.31;25.82
44313;BME280;38833;51.142;-0.974;2024-03-02T00:08:41;97430.72;;;27.19;25.89
44313;BME280;38833;51.142;-0.974;2024-03-02T00:11:14;97422.68;;;26.93;25.86
44313;BME280;38833;51.142;-0.974;2024-03-02T00:13:48;97426.69;;;27.14;25.82
44313;BME280;38833;51.142;-0.974;2024-03-02T00:16:22;97426.05;;;27.06;25.83
44313;BME280;38833;51.142;-0.974;2024-03-02T00:18:55;97423.70;;;27.08;25.78
44313;BME280;38833;51.142;-0.974;2024-03-02T00:21:30;97420.27;;;26.92;25.89
44313;BME280;38833;51.142;-0.974;2024-03-02T00:24:17;97423.13;;;26.89;25.83
44313;BME280;38833;51.142;-0.974;2024-03-02T00:26:51;97428.05;;;26.91;25.74
44313;BME280;38833;51.142;-0.974;2024-03-02T00:29:25;97429.22;;;26.65;25.75
44313;BME280;38833;51.142;-0.974;2024-03-02T00:31:58;97425.16;;;26.77;25.77
44313;BME280;38833;51.142;-0.974;2024-03-02T00:34:32;97422.90;;;26.79;25.72
44313;BME280;38833;51.142;-0.974;2024-03-02T00:37:06;97420.68;;;26.86;25.79
44313;BME280;38833;51.142;-0.974;2024-03-02T00:39:40;97416.55;;;26.58;25.76
44313;BME280;38833;51.142;-0.974;2024-03-02T00:42:13;97413.09;;;26.71;25.77
44313;BME280;38833;51.142;-0.974;2024-03-02T00:44:47;97413.36;;;26.46;25.76
44313;BME280;38833;51.142;-0.974;2024-03-02T00:47:20;97408.81;;;26.42;25.78
44313;BME280;38833;51.142;-0.974;2024-03-02T00:49:53;97410.68;;;26.58;25.79
44313;BME280;38833;51.142;-0.974;2024-03-02T00:52:26;97402.34;;;26.58;25.78
44313;BME280;38833;51.142;-0.974;2024-03-02T00:55:00;97390.27;;;26.48;25.83
44313;BME280;38833;51.142;-0.974;2024-03-02T00:57:34;97392.51;;;26.43;25.86
44313;BME280;38833;51.142;-0.974;2024-03-02T01:00:09;97394.96;;;26.11;25.88
44313;BME280;38833;51.142;-0.974;2024-03-02T01:02:42;97391.63;;;26.40;25.86
44313;BME280;38833;51.142;-0.974;2024-03-02T01:05:15;97389.64;;;26.32;25.96
44313;BME280;38833;51.142;-0.974;2024-03-02T01:07:49;97386.51;;;26.36;25.86
44313;BME280;38833;51.142;-0.974;2024-03-02T01:10:22;97389.05;;;26.21;25.87
44313;BME280;38833;51.142;-0.974;2024-03-02T01:12:55;97394.13;;;26.14;25.92
44313;BME280;38833;51.142;-0.974;2024-03-02T01:15:29;97394.36;;;26.16;25.90
44313;BME280;38833;51.142;-0.974;2024-03-02T01:18:02;97397.83;;;26.11;25.94
44313;BME280;38833;51.142;-0.974;2024-03-02T01:20:36;97394.02;;;26.24;26.01
44313;BME280;38833;51.142;-0.974;2024-03-02T01:23:09;97394.13;;;25.97;26.02
44313;BME280;38833;51.142;-0.974;2024-03-02T01:25:43;97390.77;;;25.95;25.96
44313;BME280;38833;51.142;-0.974;2024-03-02T01:28:16;97397.11;;;25.88;25.93
44313;BME280;38833;51.142;-0.974;2024-03-02T01:30:49;97392.90;;;25.91;25.93
44313;BME280;38833;51.142;-0.974;2024-03-02T01:33:23;97391.54;;;26.08;26.05
44313;BME280;38833;51.142;-0.974;2024-03-02T01:35:56;97390.69;;;25.79;26.04
44313;BME280;38833;51.142;-0.974;2024-03-02T01:38:29;97395.81;;;25.91;26.10
44313;BME280;38833;51.142;-0.974;2024-03-02T01:41:03;97400.12;;;25.98;26.02
44313;BME280;38833;51.142;-0.974;2024-03-02T01:43:36;97394.41;;;25.85;26.10
44313;BME280;38833;51.142;-0.974;2024-03-02T01:46:09;97379.01;;;25.60;26.05
44313;BME280;38833;51.142;-0.974;2024-03-02T01:48:43;97381.53;;;25.75;26.12
44313;BME280;38833;51.142;-0.974;2024-03-02T01:51:16;97380.85;;;25.72;26.17
44313;BME280;38833;51.142;-0.974;2024-03-02T01:53:49;97374.52;;;25.69;26.16
44313;BME280;38833;51.142;-0.974;2024-03-02T01:56:22;97372.63;;;25.63;26.19
44313;BME280;38833;51.142;-0.974;2024-03-02T01:58:56;97371.97;;;25.62;26.20
44313;BME280;38833;51.142;-0.974;2024-03-02T02:01:29;97367.66;;;25.53;26.23
44313;BME280;38833;51.142;-0.974;2024-03-02T02:04:03;97365.84;;;25.28;26.23
44313;BME280;38833;51.142;-0.974;2024-03-02T02:06:36;97368.99;;;25.52;26.22
44313;BME280;38833;51.142;-0.974;2024-03-02T02:09:09;97363.25;;;25.38;26.25
44313;BME280;38833;51.142;-0.974;2024-03-02T02:11:43;97360.35;;;25.43;26.25
44313;BME280;38833;51.142;-0.974;2024-03-02T02:14:16;97356.78;;;25.33;26.32
44313;BME280;38833;51.142;-0.974;2024-03-02T02:16:49;97356.34;;;25.52;26.30
44313;BME280;38833;51.142;-0.974;2024-03-02T02:19:23;97343.58;;;25.52;26.31
44313;BME280;38833;51.142;-0.974;2024-03-02T02:21:56;97337.82;;;25.25;26.31
44313;BME280;38833;51.142;-0.974;2024-03-02T02:24:29;97341.64;;;25.23;26.32
44313;BME280;38833;51.142;-0.974;2024-03-02T02:27:02;97330.42;;;25.17;26.32
44313;BME280;38833;51.142;-0.974;2024-03-02T02:29:36;97325.41;;;25.38;26.34
44313;BME280;38833;51.142;-0.974;2024-03-02T02:32:10;97317.99;;;25.30;26.32
44313;BME280;38833;51.142;-0.974;2024-03-02T02:34:43;97313.00;;;25.05;26.33
44313;BME280;38833;51.142;-0.974;2024-03-02T02:37:16;97311.52;;;25.24;26.35
44313;BME280;38833;51.142;-0.974;2024-03-02T02:39:49;97307.09;;;25.01;26.32
44313;BME280;38833;51.142;-0.974;2024-03-02T02:42:23;97304.50;;;24.95;26.34
44313;BME280;38833;51.142;-0.974;2024-03-02T02:44:56;97300.13;;;25.36;26.36
44313;BME280;38833;51.142;-0.974;2024-03-02T02:47:29;97301.50;;;24.95;26.31
44313;BME280;38833;51.142;-0.974;2024-03-02T02:50:03;97295.76;;;25.06;26.36
44313;BME280;38833;51.142;-0.974;2024-03-02T02:52:38;97293.61;;;25.29;26.38
44313;BME280;38833;51.142;-0.974;2024-03-02T02:55:13;97287.84;;;25.27;26.32
44313;BME280;38833;51.142;-0.974;2024-03-02T02:57:47;97283.30;;;25.25;26.33
44313;BME280;38833;51.142;-0.974;2024-03-02T03:00:20;97274.96;;;24.95;26.34
44313;BME280;38833;51.142;-0.974;2024-03-02T03:02:53;97271.13;;;24.94;26.33
44313;BME280;38833;51.142;-0.974;2024-03-02T03:05:27;97266.86;;;24.87;26.39
44313;BME280;38833;51.142;-0.974;2024-03-02T03:08:00;97259.66;;;24.81;26.36
44313;BME280;38833;51.142;-0.974;2024-03-02T03:10:34;97257.09;;;24.78;26.33
44313;BME280;38833;51.142;-0.974;2024-03-02T03:13:07;97247.14;;;24.49;26.37
44313;BME280;38833;51.142;-0.974;2024-03-02T03:15:40;97247.06;;;24.94;26.35
44313;BME280;38833;51.142;-0.974;2024-03-02T03:18:14;97247.67;;;24.91;26.33
44313;BME280;38833;51.142;-0.974;2024-03-02T03:20:47;97235.92;;;24.61;26.38
44313;BME280;38833;51.142;-0.974;2024-03-02T03:23:20;97231.68;;;24.51;26.47
44313;BME280;38833;51.142;-0.974;2024-03-02T03:25:54;97230.49;;;24.56;26.41
44313;BME280;38833;51.142;-0.974;2024-03-02T03:28:27;97230.39;;;24.73;26.41
44313;BME280;38833;51.142;-0.974;2024-03-02T03:31:01;97230.21;;;24.72;26.39
44313;BME280;38833;51.142;-0.974;2024-03-02T03:33:34;97220.14;;;24.71;26.38
44313;BME280;38833;51.142;-0.974;2024-03-02T03:36:07;97218.18;;;24.67;26.41
44313;BME280;38833;51.142;-0.974;2024-03-02T03:38:41;97211.29;;;24.82;26.49
44313;BME280;38833;51.142;-0.974;2024-03-02T03:41:14;97202.75;;;24.38;26.43
44313;BME280;38833;51.142;-0.974;2024-03-02T03:43:47;97188.11;;;24.37;26.43
44313;BME280;38833;51.142;-0.974;2024-03-02T03:46:21;97187.93;;;24.55;26.44
44313;BME280;38833;51.142;-0.974;2024-03-02T03:48:54;97181.20;;;24.52;26.43
44313;BME280;38833;51.142;-0.974;2024-03-02T03:51:27;97174.72;;;24.43;26.49
44313;BME280;38833;51.142;-0.974;2024-03-02T03:54:01;97171.93;;;24.33;26.55
44313;BME280;38833;51.142;-0.974;2024-03-02T03:56:34;97168.86;;;24.37;26.49
44313;BME280;38833;51.142;-0.974;2024-03-02T03:59:07;97165.13;;;24.50;26.59
44313;BME280;38833;51.142;-0.974;2024-03-02T04:01:40;97164.46;;;24.22;26.60
44313;BME280;38833;51.142;-0.974;2024-03-02T04:04:14;97160.59;;;24.28;26.48
44313;BME280;38833;51.142;-0.974;2024-03-02T04:06:47;97163.64;;;24.06;26.47
44313;BME280;38833;51.142;-0.974;2024-03-02T04:09:21;97161.39;;;24.16;26.52
44313;BME280;38833;51.142;-0.974;2024-03-02T04:11:54;97155.46;;;24.17;26.60
44313;BME280;38833;51.142;-0.974;2024-03-02T04:14:27;97156.82;;;24.15;26.51
44313;BME280;38833;51.142;-0.974;2024-03-02T04:17:01;97157.78;;;24.17;26.53
44313;BME280;38833;51.142;-0.974;2024-03-02T04:19:34;97150.90;;;24.06;26.64
44313;BME280;38833;51.142;-0.974;2024-03-02T04:22:07;97143.35;;;24.29;26.63
44313;BME280;38833;51.142;-0.974;2024-03-02T04:24:40;97137.44;;;24.01;26.63
44313;BME280;38833;51.142;-0.974;2024-03-02T04:27:14;97142.71;;;23.87;26.76
44313;BME280;38833;51.142;-0.974;2024-03-02T04:29:47;97140.02;;;23.82;26.78
44313;BME280;38833;51.142;-0.974;2024-03-02T04:32:20;97133.01;;;24.35;26.71
44313;BME280;38833;51.142;-0.974;2024-03-02T04:34:54;97125.30;;;23.78;26.77
44313;BME280;38833;51.142;-0.974;2024-03-02T04:37:27;97130.12;;;23.68;26.83
44313;BME280;38833;51.142;-0.974;2024-03-02T04:40:00;97126.58;;;24.13;26.66
44313;BME280;38833;51.142;-0.974;2024-03-02T04:42:34;97118.09;;;24.03;26.78
44313;BME280;38833;51.142;-0.974;2024-03-02T04:45:08;97123.22;;;23.83;26.58
44313;BME280;38833;51.142;-0.974;2024-03-02T04:47:41;97122.30;;;23.78;26.63
44313;BME280;38833;51.142;-0.974;2024-03-02T04:50:15;97123.56;;;23.93;26.67
44313;BME280;38833;51.142;-0.974;2024-03-02T04:52:48;97119.55;;;23.69;26.68
44313;BME280;38833;51.142;-0.974;2024-03-02T04:55:21;97126.69;;;24.06;26.78
44313;BME280;38833;51.142;-0.974;2024-03-02T04:57:54;97128.84;;;24.10;26.73
44313;BME280;38833;51.142;-0.974;2024-03-02T05:00:28;97150.11;;;23.80;27.23
44313;BME280;38833;51.142;-0.974;2024-03-02T05:03:01;97158.71;;;23.76;26.79
44313;BME280;38833;51.142;-0.974;2024-03-02T05:05:34;97149.88;;;24.13;26.93
44313;BME280;38833;51.142;-0.974;2024-03-02T05:08:08;97155.73;;;23.93;26.94
44313;BME280;38833;51.142;-0.974;2024-03-02T05:10:41;97147.74;;;23.95;27.10
44313;BME280;38833;51.142;-0.974;2024-03-02T05:13:14;97138.00;;;24.09;26.85
44313;BME280;38833;51.142;-0.974;2024-03-02T05:15:48;97137.67;;;23.18;27.34
44313;BME280;38833;51.142;-0.974;2024-03-02T05:18:21;97141.96;;;23.81;27.23
44313;BME280;38833;51.142;-0.974;2024-03-02T05:20:54;97141.61;;;23.86;27.22
44313;BME280;38833;51.142;-0.974;2024-03-02T05:23:27;97143.95;;;23.63;27.19
44313;BME280;38833;51.142;-0.974;2024-03-02T05:26:01;97148.76;;;23.73;27.32
44313;BME280;38833;51.142;-0.974;2024-03-02T05:28:36;97146.23;;;23.26;27.31
44313;BME280;38833;51.142;-0.974;2024-03-02T05:31:10;97146.69;;;23.21;27.42
44313;BME280;38833;51.142;-0.974;2024-03-02T05:33:44;97139.55;;;23.48;27.37
44313;BME280;38833;51.142;-0.974;2024-03-02T05:36:17;97141.78;;;23.44;27.47
44313;BME280;38833;51.142;-0.974;2024-03-02T05:38:50;97148.48;;;23.72;27.43
44313;BME280;38833;51.142;-0.974;2024-03-02T05:41:23;97139.13;;;23.73;27.43
44313;BME280;38833;51.142;-0.974;2024-03-02T05:43:57;97146.37;;;23.08;27.59
44313;BME280;38833;51.142;-0.974;2024-03-02T05:46:30;97142.47;;;23.61;27.37
44313;BME280;38833;51.142;-0.974;2024-03-02T05:49:03;97147.24;;;23.17;27.60
44313;BME280;38833;51.142;-0.974;2024-03-02T05:51:37;97154.07;;;23.70;27.35
44313;BME280;38833;51.142;-0.974;2024-03-02T05:54:10;97153.65;;;23.34;27.41
44313;BME280;38833;51.142;-0.974;2024-03-02T05:56:43;97152.77;;;23.56;27.24
44313;BME280;38833;51.142;-0.974;2024-03-02T05:59:16;97148.83;;;23.83;27.00
44313;BME280;38833;51.142;-0.974;2024-03-02T06:01:50;97142.89;;;24.05;27.31
44313;BME280;38833;51.142;-0.974;2024-03-02T06:04:23;97145.88;;;23.92;26.96
44313;BME280;38833;51.142;-0.974;2024-03-02T06:06:56;97147.19;;;23.86;27.03
44313;BME280;38833;51.142;-0.974;2024-03-02T06:09:30;97149.51;;;23.87;27.04
44313;BME280;38833;51.142;-0.974;2024-03-02T06:12:03;97147.35;;;24.10;26.83
44313;BME280;38833;51.142;-0.974;2024-03-02T06:14:37;97146.04;;;23.78;27.19
44313;BME280;38833;51.142;-0.974;2024-03-02T06:17:10;97150.07;;;23.93;27.06
44313;BME280;38833;51.142;-0.974;2024-03-02T06:19:43;97152.24;;;23.92;27.10
44313;BME280;38833;51.142;-0.974;2024-03-02T06:22:17;97158.86;;;24.11;26.95
44313;BME280;38833;51.142;-0.974;2024-03-02T06:24:50;97166.05;;;24.25;26.82
44313;BME280;38833;51.142;-0.974;2024-03-02T06:27:24;97158.09;;;24.39;26.71
44313;BME280;38833;51.142;-0.974;2024-03-02T06:29:57;97163.03;;;24.60;26.78
44313;BME280;38833;51.142;-0.974;2024-03-02T06:32:30;97169.82;;;24.12;27.03
44313;BME280;38833;51.142;-0.974;2024-03-02T06:35:04;97165.97;;;24.24;26.91
44313;BME280;38833;51.142;-0.974;2024-03-02T06:37:38;97173.69;;;24.21;26.94
44313;BME280;38833;51.142;-0.974;2024-03-02T06:40:12;97169.68;;;24.37;26.79
44313;BME280;38833;51.142;-0.974;2024-03-02T06:42:45;97169.75;;;24.47;26.53
44313;BME280;38833;51.142;-0.974;2024-03-02T06:45:18;97170.67;;;24.83;26.42
44313;BME280;38833;51.142;-0.974;2024-03-02T06:47:52;97179.78;;;24.53;26.34
44313;BME280;38833;51.142;-0.974;2024-03-02T06:50:25;97177.87;;;24.65;26.24
44313;BME280;38833;51.142;-0.974;2024-03-02T06:52:58;97181.35;;;25.13;26.28
44313;BME280;38833;51.142;-0.974;2024-03-02T06:55:32;97180.71;;;25.44;26.05
44313;BME280;38833;51.142;-0.974;2024-03-02T06:58:05;97182.65;;;24.75;26.33
44313;BME280;38833;51.142;-0.974;2024-03-02T07:00:38;97188.75;;;24.72;26.64
44313;BME280;38833;51.142;-0.974;2024-03-02T07:03:12;97193.65;;;24.95;26.26
44313;BME280;38833;51.142;-0.974;2024-03-02T07:05:45;97197.48;;;25.03;26.23
44313;BME280;38833;51.142;-0.974;2024-03-02T07:08:19;97198.26;;;25.29;26.08
44313;BME280;38833;51.142;-0.974;2024-03-02T07:10:52;97204.45;;;25.46;25.96
44313;BME280;38833;51.142;-0.974;2024-03-02T07:13:25;97207.89;;;25.25;26.18
44313;BME280;38833;51.142;-0.974;2024-03-02T07:15:58;97211.32;;;25.45;26.05
44313;BME280;38833;51.142;-0.974;2024-03-02T07:18:32;97214.76;;;25.21;26.32
44313;BME280;38833;51.142;-0.974;2024-03-02T07:21:05;97215.72;;;25.70;25.95
44313;BME280;38833;51.142;-0.974;2024-03-02T07:23:38;97219.47;;;25.69;25.74
44313;BME280;38833;51.142;-0.974;2024-03-02T07:26:12;97222.63;;;26.09;25.64
44313;BME280;38833;51.142;-0.974;2024-03-02T07:28:46;97226.19;;;25.57;25.74
44313;BME280;38833;51.142;-0.974;2024-03-02T07:31:20;97230.03;;;26.03;25.58
44313;BME280;38833;51.142;-0.974;2024-03-02T07:33:53;97236.35;;;26.04;25.39
44313;BME280;38833;51.142;-0.974;2024-03-02T07:36:26;97239.53;;;26.40;25.32
44313;BME280;38833;51.142;-0.974;2024-03-02T07:38:59;97249.55;;;25.91;25.60
44313;BME280;38833;51.142;-0.974;2024-03-02T07:41:33;97254.92;;;25.82;25.69
44313;BME280;38833;51.142;-0.974;2024-03-02T07:44:06;97257.78;;;26.32;25.50
44313;BME280;38833;51.142;-0.974;2024-03-02T07:46:39;97262.58;;;26.29;25.35
44313;BME280;38833;51.142;-0.974;2024-03-02T07:49:13;97264.02;;;26.23;25.42
44313;BME280;38833;51.142;-0.974;2024-03-02T07:51:46;97269.25;;;26.40;25.33
44313;BME280;38833;51.142;-0.974;2024-03-02T07:54:20;97271.11;;;26.28;25.45
44313;BME280;38833;51.142;-0.974;2024-03-02T07:56:53;97272.67;;;26.54;25.30
44313;BME280;38833;51.142;-0.974;2024-03-02T07:59:26;97278.56;;;26.30;25.52
44313;BME280;38833;51.142;-0.974;2024-03-02T08:02:00;97282.16;;;26.34;25.51
44313;BME280;38833;51.142;-0.974;2024-03-02T08:04:33;97291.19;;;26.84;25.11
44313;BME280;38833;51.142;-0.974;2024-03-02T08:07:07;97301.44;;;26.68;25.27
44313;BME280;38833;51.142;-0.974;2024-03-02T08:09:40;97308.94;;;26.85;25.15
44313;BME280;38833;51.142;-0.974;2024-03-02T08:12:14;97312.72;;;26.85;25.17
44313;BME280;38833;51.142;-0.974;2024-03-02T08:14:47;97312.26;;;27.03;25.01
44313;BME280;38833;51.142;-0.974;2024-03-02T08:17:20;97317.58;;;26.59;25.18
44313;BME280;38833;51.142;-0.974;2024-03-02T08:19:54;97321.11;;;26.95;25.12
44313;BME280;38833;51.142;-0.974;2024-03-02T08:22:27;97329.59;;;26.80;25.27
44313;BME280;38833;51.142;-0.974;2024-03-02T08:25:01;97332.55;;;26.93;24.97
44313;BME280;38833;51.142;-0.974;2024-03-02T08:27:34;97335.00;;;26.69;25.18
44313;BME280;38833;51.142;-0.974;2024-03-02T08:30:08;97333.34;;;26.73;25.18
44313;BME280;38833;51.142;-0.974;2024-03-02T08:32:42;97337.77;;;26.40;25.22
44313;BME280;38833;51.142;-0.974;2024-03-02T08:35:15;97336.11;;;26.78;25.11
44313;BME280;38833;51.142;-0.974;2024-03-02T08:37:48;97334.09;;;26.39;25.62
44313;BME280;38833;51.142;-0.974;2024-03-02T08:40:22;97338.10;;;26.50;25.51
44313;BME280;38833;51.142;-0.974;2024-03-02T08:42:55;97339.03;;;26.24;25.50
44313;BME280;38833;51.142;-0.974;2024-03-02T08:45:29;97341.26;;;26.62;25.41
44313;BME280;38833;51.142;-0.974;2024-03-02T08:48:02;97340.00;;;26.32;25.49
44313;BME280;38833;51.142;-0.974;2024-03-02T08:50:36;97344.24;;;26.34;25.44
44313;BME280;38833;51.142;-0.974;2024-03-02T08:53:09;97349.90;;;26.60;25.24
44313;BME280;38833;51.142;-0.974;2024-03-02T08:55:42;97358.84;;;27.09;24.98
44313;BME280;38833;51.142;-0.974;2024-03-02T08:58:16;97366.02;;;26.97;25.04
44313;BME280;38833;51.142;-0.974;2024-03-02T09:00:49;97368.02;;;27.03;24.98
44313;BME280;38833;51.142;-0.974;2024-03-02T09:03:23;97368.53;;;26.94;25.02
44313;BME280;38833;51.142;-0.974;2024-03-02T09:05:56;97372.47;;;27.16;24.82
44313;BME280;38833;51.142;-0.974;2024-03-02T09:08:29;97376.08;;;26.87;25.04
44313;BME280;38833;51.142;-0.974;2024-03-02T09:11:03;97370.74;;;26.35;25.47
44313;BME280;38833;51.142;-0.974;2024-03-02T09:13:37;97379.81;;;26.18;25.64
44313;BME280;38833;51.142;-0.974;2024-03-02T09:16:11;97381.35;;;26.08;25.46
44313;BME280;38833;51.142;-0.974;2024-03-02T09:18:44;97382.97;;;26.74;25.15
44313;BME280;38833;51.142;-0.974;2024-03-02T09:21:18;97386.15;;;26.86;25.05
44313;BME280;38833;51.142;-0.974;2024-03-02T09:23:51;97388.19;;;26.69;25.14
44313;BME280;38833;51.142;-0.974;2024-03-02T09:26:25;97391.65;;;26.80;25.02
44313;BME280;38833;51.142;-0.974;2024-03-02T09:28:58;97393.51;;;26.90;24.93
44313;BME280;38833;51.142;-0.974;2024-03-02T09:31:31;97394.81;;;26.95;25.06
44313;BME280;38833;51.142;-0.974;2024-03-02T09:34:04;97402.42;;;26.71;24.97
44313;BME280;38833;51.142;-0.974;2024-03-02T09:36:37;97404.40;;;27.05;25.04
44313;BME280;38833;51.142;-0.974;2024-03-02T09:39:11;97410.13;;;26.65;25.11
44313;BME280;38833;51.142;-0.974;2024-03-02T09:41:45;97411.94;;;26.66;25.12
44313;BME280;38833;51.142;-0.974;2024-03-02T09:44:18;97415.20;;;26.60;25.17
44313;BME280;38833;51.142;-0.974;2024-03-02T09:46:52;97418.15;;;26.56;25.17
44313;BME280;38833;51.142;-0.974;2024-03-02T09:49:26;97419.02;;;26.49;25.16
44313;BME280;38833;51.142;-0.974;2024-03-02T09:51:59;97418.75;;;26.64;25.22
44313;BME280;38833;51.142;-0.974;2024-03-02T09:54:32;97416.11;;;26.42;25.15
44313;BME280;38833;51.142;-0.974;2024-03-02T09:57:06;97417.09;;;26.05;25.28
44313;BME280;38833;51.142;-0.974;2024-03-02T09:59:39;97420.40;;;26.23;25.26
44313;BME280;38833;51.142;-0.974;2024-03-02T10:02:12;97421.41;;;26.22;25.22
44313;BME280;38833;51.142;-0.974;2024-03-02T10:04:49;97421.60;;;26.07;25.33
44313;BME280;38833;51.142;-0.974;2024-03-02T10:07:22;97422.59;;;26.05;25.32
44313;BME280;38833;51.142;-0.974;2024-03-02T10:09:56;97426.47;;;26.26;25.48
44313;BME280;38833;51.142;-0.974;2024-03-02T10:12:29;97430.59;;;26.30;25.44
44313;BME280;38833;51.142;-0.974;2024-03-02T10:15:04;97432.22;;;26.03;25.66
44313;BME280;38833;51.142;-0.974;2024-03-02T10:17:37;97436.33;;;25.73;25.67
44313;BME280;38833;51.142;-0.974;2024-03-02T10:20:27;97434.05;;;26.16;25.43
44313;BME280;38833;51.142;-0.974;2024-03-02T10:23:11;97437.11;;;26.09;25.49
44313;BME280;38833;51.142;-0.974;2024-03-02T10:25:45;97440.06;;;25.98;25.61
44313;BME280;38833;51.142;-0.974;2024-03-02T10:28:18;97441.06;;;25.97;25.60
44313;BME280;38833;51.142;-0.974;2024-03-02T10:30:52;97444.86;;;25.58;25.75
44313;BME280;38833;51.142;-0.974;2024-03-02T10:33:25;97447.19;;;25.82;25.70
44313;BME280;38833;51.142;-0.974;2024-03-02T10:35:58;97448.41;;;25.74;25.77
44313;BME280;38833;51.142;-0.974;2024-03-02T10:38:31;97456.63;;;25.75;25.77
44313;BME280;38833;51.142;-0.974;2024-03-02T10:41:05;97458.89;;;25.65;25.80
44313;BME280;38833;51.142;-0.974;2024-03-02T10:43:39;97458.74;;;25.71;25.86
44313;BME280;38833;51.142;-0.974;2024-03-02T10:46:13;97460.84;;;25.60;25.94
44313;BME280;38833;51.142;-0.974;2024-03-02T10:48:47;97463.47;;;25.43;26.10
44313;BME280;38833;51.142;-0.974;2024-03-02T10:51:21;97469.93;;;25.50;25.96
44313;BME280;38833;51.142;-0.974;2024-03-02T10:53:54;97473.28;;;25.69;26.01
44313;BME280;38833;51.142;-0.974;2024-03-02T10:56:30;97475.06;;;25.42;25.93
44313;BME280;38833;51.142;-0.974;2024-03-02T10:59:10;97475.55;;;25.08;25.98
44313;BME280;38833;51.142;-0.974;2024-03-02T11:01:50;97474.66;;;25.34;26.05
44313;BME280;38833;51.142;-0.974;2024-03-02T11:04:24;97471.54;;;25.27;25.99
44313;BME280;38833;51.142;-0.974;2024-03-02T11:07:02;97472.54;;;25.32;25.92
44313;BME280;38833;51.142;-0.974;2024-03-02T11:09:40;97474.08;;;25.52;25.87
44313;BME280;38833;51.142;-0.974;2024-03-02T11:12:19;97476.76;;;25.42;25.90
44313;BME280;38833;51.142;-0.974;2024-03-02T11:14:56;97481.92;;;25.19;25.98
44313;BME280;38833;51.142;-0.974;2024-03-02T11:17:29;97484.71;;;24.78;26.77
44313;BME280;38833;51.142;-0.974;2024-03-02T11:20:04;97494.50;;;25.24;26.40
44313;BME280;38833;51.142;-0.974;2024-03-02T11:22:38;97500.20;;;25.52;26.27
44313;BME280;38833;51.142;-0.974;2024-03-02T11:25:24;97502.32;;;25.01;26.37
44313;BME280;38833;51.142;-0.974;2024-03-02T11:28:02;97500.55;;;25.04;26.37
44313;BME280;38833;51.142;-0.974;2024-03-02T11:30:52;97502.19;;;25.16;26.44
44313;BME280;38833;51.142;-0.974;2024-03-02T11:33:26;97498.44;;;25.45;26.46
44313;BME280;38833;51.142;-0.974;2024-03-02T11:36:01;97496.30;;;25.46;27.36
44313;BME280;38833;51.142;-0.974;2024-03-02T11:38:35;97494.68;;;25.25;27.59
44313;BME280;38833;51.142;-0.974;2024-03-02T11:41:09;97500.16;;;25.31;27.42
44313;BME280;38833;51.142;-0.974;2024-03-02T11:43:43;97498.28;;;25.58;27.61
44313;BME280;38833;51.142;-0.974;2024-03-02T11:46:16;97504.41;;;25.23;27.40
44313;BME280;38833;51.142;-0.974;2024-03-02T11:48:49;97504.35;;;25.15;27.14
44313;BME280;38833;51.142;-0.974;2024-03-02T11:51:22;97505.49;;;25.18;27.20
44313;BME280;38833;51.142;-0.974;2024-03-02T11:53:56;97508.52;;;25.09;27.42
44313;BME280;38833;51.142;-0.974;2024-03-02T11:56:31;97508.24;;;25.36;27.34
44313;BME280;38833;51.142;-0.974;2024-03-02T11:59:05;97512.77;;;25.55;27.25
44313;BME280;38833;51.142;-0.974;2024-03-02T12:01:39;97516.01;;;25.39;27.21
44313;BME280;38833;51.142;-0.974;2024-03-02T12:04:13;97519.54;;;25.17;27.14
44313;BME280;38833;51.142;-0.974;2024-03-02T12:06:46;97517.90;;;25.25;27.49
44313;BME280;38833;51.142;-0.974;2024-03-02T12:09:21;97525.65;;;25.09;27.60
44313;BME280;38833;51.142;-0.974;2024-03-02T12:12:03;97528.62;;;24.95;27.57
44313;BME280;38833;51.142;-0.974;2024-03-02T12:14:38;97532.90;;;25.36;27.62
44313;BME280;38833;51.142;-0.974;2024-03-02T12:17:11;97531.34;;;25.20;27.55
44313;BME280;38833;51.142;-0.974;2024-03-02T12:19:45;97530.18;;;25.46;27.46
44313;BME280;38833;51.142;-0.974;2024-03-02T12:22:18;97526.32;;;25.25;27.42
44313;BME280;38833;51.142;-0.974;2024-03-02T12:24:52;97526.75;;;25.32;27.59
44313;BME280;38833;51.142;-0.974;2024-03-02T12:27:25;97525.93;;;25.55;27.63
44313;BME280;38833;51.142;-0.974;2024-03-02T12:29:59;97526.25;;;25.30;28.00
44313;BME280;38833;51.142;-0.974;2024-03-02T12:32:32;97520.43;;;25.25;28.19
44313;BME280;38833;51.142;-0.974;2024-03-02T12:35:06;97517.69;;;25.32;28.23
44313;BME280;38833;51.142;-0.974;2024-03-02T12:37:43;97516.22;;;25.25;27.98
44313;BME280;38833;51.142;-0.974;2024-03-02T12:40:18;97518.23;;;24.97;28.14
44313;BME280;38833;51.142;-0.974;2024-03-02T12:42:52;97518.93;;;25.49;28.01
44313;BME280;38833;51.142;-0.974;2024-03-02T12:47:28;97523.85;;;25.01;28.64
44313;BME280;38833;51.142;-0.974;2024-03-02T12:50:03;97524.85;;;24.99;28.26
44313;BME280;38833;51.142;-0.974;2024-03-02T12:52:36;97523.93;;;25.01;28.48
44313;BME280;38833;51.142;-0.974;2024-03-02T12:55:10;97527.70;;;25.17;28.50
44313;BME280;38833;51.142;-0.974;2024-03-02T12:57:44;97524.92;;;25.19;28.53
44313;BME280;38833;51.142;-0.974;2024-03-02T13:00:18;97525.68;;;25.25;28.32
44313;BME280;38833;51.142;-0.974;2024-03-02T13:02:52;97523.66;;;25.25;28.62
44313;BME280;38833;51.142;-0.974;2024-03-02T13:05:25;97523.57;;;25.06;28.75
44313;BME280;38833;51.142;-0.974;2024-03-02T13:08:03;97524.90;;;25.15;28.93
44313;BME280;38833;51.142;-0.974;2024-03-02T13:10:38;97529.03;;;25.50;29.39
44313;BME280;38833;51.142;-0.974;2024-03-02T13:13:11;97529.00;;;25.42;29.16
44313;BME280;38833;51.142;-0.974;2024-03-02T13:15:44;97531.24;;;25.02;29.14
44313;BME280;38833;51.142;-0.974;2024-03-02T13:18:18;97530.35;;;25.40;29.11
44313;BME280;38833;51.142;-0.974;2024-03-02T13:20:51;97528.81;;;25.21;28.87
44313;BME280;38833;51.142;-0.974;2024-03-02T13:23:25;97529.09;;;25.25;28.68
44313;BME280;38833;51.142;-0.974;2024-03-02T13:25:58;97529.47;;;25.46;28.59